sensor_id;sensor_type;location;lat;lon;timestamp;temperature;humidity
13320;DHT22;59599;47.608;12.190;2023-04-21T04:00:24;9.00;99.90
13320;DHT22;59599;47.608;12.190;2023-04-21T04:07:41;8.80;99.90
13320;DHT22;59599;47.608;12.190;2023-04-21T04:19:51;8.50;99.90
13320;DHT22;59599;47.608;12.190;2023-04-21T04:22:17;8.60;99.90
13320;DHT22;59599;47.608;12.190;2023-04-21T04:24:42;8.60;99.90
13320;DHT22;59599;47.608;12.190;2023-04-21T04:27:09;8.60;99.90
13320;DHT22;59599;47.608;12.190;2023-04-21T04:29:35;8.60;99.90
13320;DHT22;59599;47.608;12.190;2023-04-21T04:32:00;8.60;99.90
13320;DHT22;59599;47.608;12.190;2023-04-21T04:36:54;8.60;99.90
13320;DHT22;59599;47.608;12.190;2023-04-21T04:39:21;8.60;99.90
13320;DHT22;59599;47.608;12.190;2023-04-21T04:41:47;8.60;99.90
13320;DHT22;59599;47.608;12.190;2023-04-21T04:49:07;8.50;99.90
13320;DHT22;59599;47.608;12.190;2023-04-21T04:56:24;8.50;99.90
13320;DHT22;59599;47.608;12.190;2023-04-21T04:58:50;8.50;99.90
13320;DHT22;59599;47.608;12.190;2023-04-21T05:01:16;8.60;99.90
13320;DHT22;59599;47.608;12.190;2023-04-21T05:03:42;8.70;99.90
13320;DHT22;59599;47.608;12.190;2023-04-21T05:08:34;8.40;99.90
13320;DHT22;59599;47.608;12.190;2023-04-21T05:11:00;8.40;99.90
13320;DHT22;59599;47.608;12.190;2023-04-21T05:13:25;8.50;99.90
13320;DHT22;59599;47.608;12.190;2023-04-21T05:15:58;8.70;99.90
13320;DHT22;59599;47.608;12.190;2023-04-21T05:18:26;8.60;99.90
13320;DHT22;59599;47.608;12.190;2023-04-21T05:20:52;8.70;99.90
13320;DHT22;59599;47.608;12.190;2023-04-21T05:23:17;8.60;99.90
13320;DHT22;59599;47.608;12.190;2023-04-21T05:35:29;8.90;99.90
13320;DHT22;59599;47.608;12.190;2023-04-21T05:37:55;8.90;99.90
13320;DHT22;59599;47.608;12.190;2023-04-21T05:40:21;9.00;99.90
13320;DHT22;59599;47.608;12.190;2023-04-21T05:42:46;9.00;99.90
13320;DHT22;59599;47.608;12.190;2023-04-21T05:50:05;9.30;99.90
13320;DHT22;59599;47.608;12.190;2023-04-21T05:54:57;9.40;99.90
13320;DHT22;59599;47.608;12.190;2023-04-21T05:59:50;9.40;99.90
13320;DHT22;59599;47.608;12.190;2023-04-21T06:02:15;9.50;99.90
13320;DHT22;59599;47.608;12.190;2023-04-21T06:04:41;9.50;99.90
13320;DHT22;59599;47.608;12.190;2023-04-21T06:07:07;9.50;99.90
13320;DHT22;59599;47.608;12.190;2023-04-21T06:09:34;9.40;99.90
13320;DHT22;59599;47.608;12.190;2023-04-21T06:21:44;9.50;99.90
13320;DHT22;59599;47.608;12.190;2023-04-21T06:24:10;9.40;99.90
13320;DHT22;59599;47.608;12.190;2023-04-21T06:26:35;9.50;99.90
13320;DHT22;59599;47.608;12.190;2023-04-21T06:36:19;9.80;99.90
13320;DHT22;59599;47.608;12.190;2023-04-21T06:38:46;10.00;99.90
13320;DHT22;59599;47.608;12.190;2023-04-21T06:50:56;10.10;99.90
13320;DHT22;59599;47.608;12.190;2023-04-21T06:53:21;10.20;99.90
13320;DHT22;59599;47.608;12.190;2023-04-21T06:55:47;10.20;99.90
13320;DHT22;59599;47.608;12.190;2023-04-21T06:58:13;10.30;99.90
13320;DHT22;59599;47.608;12.190;2023-04-21T07:00:39;10.30;99.90
13320;DHT22;59599;47.608;12.190;2023-04-21T07:03:04;10.20;99.90
13320;DHT22;59599;47.608;12.190;2023-04-21T07:05:31;10.00;99.90
13320;DHT22;59599;47.608;12.190;2023-04-21T07:07:57;10.00;99.90
13320;DHT22;59599;47.608;12.190;2023-04-21T07:10:27;10.10;99.90
13320;DHT22;59599;47.608;12.190;2023-04-21T07:15:20;10.30;99.90
13320;DHT22;59599;47.608;12.190;2023-04-21T07:17:45;10.40;99.90
13320;DHT22;59599;47.608;12.190;2023-04-21T07:20:11;10.50;99.90
13320;DHT22;59599;47.608;12.190;2023-04-21T07:25:03;10.40;99.90
13320;DHT22;59599;47.608;12.190;2023-04-21T07:32:23;10.70;99.90
13320;DHT22;59599;47.608;12.190;2023-04-21T07:44:34;11.20;99.90
13320;DHT22;59599;47.608;12.190;2023-04-21T07:46:59;11.30;99.90
13320;DHT22;59599;47.608;12.190;2023-04-21T07:59:09;11.70;99.90
13320;DHT22;59599;47.608;12.190;2023-04-21T08:01:34;11.90;99.90
13320;DHT22;59599;47.608;12.190;2023-04-21T08:04:00;12.00;99.90
13320;DHT22;59599;47.608;12.190;2023-04-21T08:06:25;12.00;99.90
13320;DHT22;59599;47.608;12.190;2023-04-21T08:11:19;12.10;99.90
13320;DHT22;59599;47.608;12.190;2023-04-21T08:13:44;12.20;99.90
13320;DHT22;59599;47.608;12.190;2023-04-21T08:16:10;12.30;99.90
13320;DHT22;59599;47.608;12.190;2023-04-21T08:25:56;12.50;99.90
13320;DHT22;59599;47.608;12.190;2023-04-21T08:33:14;12.70;99.90
13320;DHT22;59599;47.608;12.190;2023-04-21T08:35:40;12.70;99.90
13320;DHT22;59599;47.608;12.190;2023-04-21T08:38:06;12.80;99.90
13320;DHT22;59599;47.608;12.190;2023-04-21T08:40:34;12.80;99.90
13320;DHT22;59599;47.608;12.190;2023-04-21T08:43:00;12.90;99.90
13320;DHT22;59599;47.608;12.190;2023-04-21T08:45:27;13.00;99.90
13320;DHT22;59599;47.608;12.190;2023-04-21T08:47:54;13.10;99.90
13320;DHT22;59599;47.608;12.190;2023-04-21T08:50:20;13.10;99.90
13320;DHT22;59599;47.608;12.190;2023-04-21T08:55:15;13.40;99.90
13320;DHT22;59599;47.608;12.190;2023-04-21T09:02:58;13.70;99.90
13320;DHT22;59599;47.608;12.190;2023-04-21T09:05:25;13.80;99.90
13320;DHT22;59599;47.608;12.190;2023-04-21T09:10:33;13.80;99.90
13320;DHT22;59599;47.608;12.190;2023-04-21T09:12:59;13.70;99.90
13320;DHT22;59599;47.608;12.190;2023-04-21T09:15:37;13.70;99.90
13320;DHT22;59599;47.608;12.190;2023-04-21T09:20:29;13.70;99.90
13320;DHT22;59599;47.608;12.190;2023-04-21T09:25:21;13.30;99.90
13320;DHT22;59599;47.608;12.190;2023-04-21T09:27:47;13.20;99.90
13320;DHT22;59599;47.608;12.190;2023-04-21T09:30:13;13.30;99.90
13320;DHT22;59599;47.608;12.190;2023-04-21T09:32:42;13.50;99.90
13320;DHT22;59599;47.608;12.190;2023-04-21T09:35:11;13.40;99.90
13320;DHT22;59599;47.608;12.190;2023-04-21T09:37:37;13.40;99.90
13320;DHT22;59599;47.608;12.190;2023-04-21T09:40:04;13.50;99.90
13320;DHT22;59599;47.608;12.190;2023-04-21T09:42:33;13.60;99.90
13320;DHT22;59599;47.608;12.190;2023-04-21T09:45:00;13.60;99.90
13320;DHT22;59599;47.608;12.190;2023-04-21T09:47:28;13.70;99.90
13320;DHT22;59599;47.608;12.190;2023-04-21T09:49:54;14.00;99.90
13320;DHT22;59599;47.608;12.190;2023-04-21T09:52:23;14.20;99.90
13320;DHT22;59599;47.608;12.190;2023-04-21T09:54:51;14.40;99.90
13320;DHT22;59599;47.608;12.190;2023-04-21T09:57:24;14.40;99.90
13320;DHT22;59599;47.608;12.190;2023-04-21T09:59:55;14.60;99.90
13320;DHT22;59599;47.608;12.190;2023-04-21T10:02:24;14.70;99.90
13320;DHT22;59599;47.608;12.190;2023-04-21T10:04:53;14.80;99.90
13320;DHT22;59599;47.608;12.190;2023-04-21T10:09:51;15.00;99.90
13320;DHT22;59599;47.608;12.190;2023-04-21T10:12:20;15.10;99.90
13320;DHT22;59599;47.608;12.190;2023-04-21T10:14:54;15.10;99.90
13320;DHT22;59599;47.608;12.190;2023-04-21T10:17:22;15.40;99.90
13320;DHT22;59599;47.608;12.190;2023-04-21T10:19:52;15.50;99.90
13320;DHT22;59599;47.608;12.190;2023-04-21T10:22:29;15.90;99.90
13320;DHT22;59599;47.608;12.190;2023-04-21T10:24:56;16.00;99.90
13320;DHT22;59599;47.608;12.190;2023-04-21T10:27:36;16.30;99.90
13320;DHT22;59599;47.608;12.190;2023-04-21T10:30:23;16.30;99.90
13320;DHT22;59599;47.608;12.190;2023-04-21T10:33:04;16.40;99.90
13320;DHT22;59599;47.608;12.190;2023-04-21T10:35:58;16.50;99.90
13320;DHT22;59599;47.608;12.190;2023-04-21T10:38:39;16.40;99.90
13320;DHT22;59599;47.608;12.190;2023-04-21T10:41:27;16.40;99.90
13320;DHT22;59599;47.608;12.190;2023-04-21T10:43:56;16.40;99.90
13320;DHT22;59599;47.608;12.190;2023-04-21T10:46:34;16.30;99.90
13320;DHT22;59599;47.608;12.190;2023-04-21T10:49:21;16.30;99.90
13320;DHT22;59599;47.608;12.190;2023-04-21T10:54:46;16.30;99.90
13320;DHT22;59599;47.608;12.190;2023-04-21T10:57:31;16.40;99.90
13320;DHT22;59599;47.608;12.190;2023-04-21T10:59:56;16.40;99.90
13320;DHT22;59599;47.608;12.190;2023-04-21T11:04:52;16.50;99.90
13320;DHT22;59599;47.608;12.190;2023-04-21T11:07:19;16.40;99.90
13320;DHT22;59599;47.608;12.190;2023-04-21T11:09:46;16.50;99.90
13320;DHT22;59599;47.608;12.190;2023-04-21T11:12:16;16.70;99.90
13320;DHT22;59599;47.608;12.190;2023-04-21T11:14:43;16.80;99.90
13320;DHT22;59599;47.608;12.190;2023-04-21T11:17:11;17.10;99.90
13320;DHT22;59599;47.608;12.190;2023-04-21T11:19:38;17.30;99.90
13320;DHT22;59599;47.608;12.190;2023-04-21T11:22:04;17.50;99.90
13320;DHT22;59599;47.608;12.190;2023-04-21T11:24:32;17.60;99.90
13320;DHT22;59599;47.608;12.190;2023-04-21T11:26:58;17.70;99.90
13320;DHT22;59599;47.608;12.190;2023-04-21T11:31:56;18.00;99.90
13320;DHT22;59599;47.608;12.190;2023-04-21T11:34:25;18.20;99.90
13320;DHT22;59599;47.608;12.190;2023-04-21T11:36:51;18.40;99.90
13320;DHT22;59599;47.608;12.190;2023-04-21T11:39:18;18.70;99.90
13320;DHT22;59599;47.608;12.190;2023-04-21T11:41:48;18.90;99.90
13320;DHT22;59599;47.608;12.190;2023-04-21T11:46:55;19.30;99.90
13320;DHT22;59599;47.608;12.190;2023-04-21T11:49:24;19.50;99.90
13320;DHT22;59599;47.608;12.190;2023-04-21T11:51:50;19.60;99.90
13320;DHT22;59599;47.608;12.190;2023-04-21T11:54:17;19.70;99.90
13320;DHT22;59599;47.608;12.190;2023-04-21T11:56:45;19.80;99.90
13320;DHT22;59599;47.608;12.190;2023-04-21T11:59:16;19.80;99.90
13320;DHT22;59599;47.608;12.190;2023-04-21T12:01:51;19.90;99.90
13320;DHT22;59599;47.608;12.190;2023-04-21T12:04:22;19.90;99.90
13320;DHT22;59599;47.608;12.190;2023-04-21T12:07:00;19.70;99.90
13320;DHT22;59599;47.608;12.190;2023-04-21T12:09:26;19.70;99.90
13320;DHT22;59599;47.608;12.190;2023-04-21T12:11:54;19.80;99.90
13320;DHT22;59599;47.608;12.190;2023-04-21T12:14:22;19.90;99.90
13320;DHT22;59599;47.608;12.190;2023-04-21T12:16:56;20.10;99.90
13320;DHT22;59599;47.608;12.190;2023-04-21T12:19:23;20.20;99.90
13320;DHT22;59599;47.608;12.190;2023-04-21T12:21:54;20.30;99.90
13320;DHT22;59599;47.608;12.190;2023-04-21T12:29:13;20.80;99.90
13320;DHT22;59599;47.608;12.190;2023-04-21T12:34:04;21.20;99.90
13320;DHT22;59599;47.608;12.190;2023-04-21T12:36:29;21.50;99.90
13320;DHT22;59599;47.608;12.190;2023-04-21T12:38:55;21.70;99.90
13320;DHT22;59599;47.608;12.190;2023-04-21T12:41:21;22.00;99.90
13320;DHT22;59599;47.608;12.190;2023-04-21T12:46:12;22.40;99.90
13320;DHT22;59599;47.608;12.190;2023-04-21T12:48:38;22.50;99.90
13320;DHT22;59599;47.608;12.190;2023-04-21T12:51:03;22.60;99.90
13320;DHT22;59599;47.608;12.190;2023-04-21T12:53:31;22.70;99.90
13320;DHT22;59599;47.608;12.190;2023-04-21T12:55:56;22.70;99.90
13320;DHT22;59599;47.608;12.190;2023-04-21T12:58:22;22.80;99.90
13320;DHT22;59599;47.608;12.190;2023-04-21T13:10:31;23.20;99.90
13320;DHT22;59599;47.608;12.190;2023-04-21T13:12:57;23.20;99.90
13320;DHT22;59599;47.608;12.190;2023-04-21T13:15:22;23.10;99.90
13320;DHT22;59599;47.608;12.190;2023-04-21T13:22:43;23.40;99.90
13320;DHT22;59599;47.608;12.190;2023-04-21T13:25:08;23.50;98.30
13320;DHT22;59599;47.608;12.190;2023-04-21T13:27:34;23.70;99.40
13320;DHT22;59599;47.608;12.190;2023-04-21T13:30:07;23.90;96.90
13320;DHT22;59599;47.608;12.190;2023-04-21T13:32:33;24.00;98.50
13320;DHT22;59599;47.608;12.190;2023-04-21T13:34:59;24.30;97.80
13320;DHT22;59599;47.608;12.190;2023-04-21T13:37:24;24.50;97.80
13320;DHT22;59599;47.608;12.190;2023-04-21T13:47:08;24.70;95.80
13320;DHT22;59599;47.608;12.190;2023-04-21T13:49:33;24.70;95.60
13320;DHT22;59599;47.608;12.190;2023-04-21T13:51:59;24.80;93.60
13320;DHT22;59599;47.608;12.190;2023-04-21T13:54:25;24.90;95.40
13320;DHT22;59599;47.608;12.190;2023-04-21T13:56:50;25.20;94.40
13320;DHT22;59599;47.608;12.190;2023-04-21T13:59:16;25.30;92.40
13320;DHT22;59599;47.608;12.190;2023-04-21T14:01:41;25.40;91.40
13320;DHT22;59599;47.608;12.190;2023-04-21T14:11:25;24.50;84.70
13320;DHT22;59599;47.608;12.190;2023-04-21T14:13:50;24.20;87.50
13320;DHT22;59599;47.608;12.190;2023-04-21T14:16:16;23.70;86.60
13320;DHT22;59599;47.608;12.190;2023-04-21T14:21:08;23.10;91.40
13320;DHT22;59599;47.608;12.190;2023-04-21T14:26:00;23.70;90.70
13320;DHT22;59599;47.608;12.190;2023-04-21T14:28:26;24.20;90.60
13320;DHT22;59599;47.608;12.190;2023-04-21T14:30:51;24.70;90.60
13320;DHT22;59599;47.608;12.190;2023-04-21T14:33:17;25.10;92.00
13320;DHT22;59599;47.608;12.190;2023-04-21T14:35:42;25.60;86.70
13320;DHT22;59599;47.608;12.190;2023-04-21T14:45:26;25.90;72.80
13320;DHT22;59599;47.608;12.190;2023-04-21T14:47:51;25.60;77.50
13320;DHT22;59599;47.608;12.190;2023-04-21T14:50:17;26.00;75.90
13320;DHT22;59599;47.608;12.190;2023-04-21T14:52:42;26.40;72.00
13320;DHT22;59599;47.608;12.190;2023-04-21T14:55:09;26.30;71.20
13320;DHT22;59599;47.608;12.190;2023-04-21T14:57:35;26.00;68.40
13320;DHT22;59599;47.608;12.190;2023-04-21T15:04:53;25.40;70.30
13320;DHT22;59599;47.608;12.190;2023-04-21T15:07:20;25.30;70.20
13320;DHT22;59599;47.608;12.190;2023-04-21T15:09:45;25.00;81.00
13320;DHT22;59599;47.608;12.190;2023-04-21T15:24:23;22.00;93.40
13320;DHT22;59599;47.608;12.190;2023-04-21T15:26:48;21.80;94.80
13320;DHT22;59599;47.608;12.190;2023-04-21T15:29:14;21.60;92.40
13320;DHT22;59599;47.608;12.190;2023-04-21T15:31:40;21.40;92.80
13320;DHT22;59599;47.608;12.190;2023-04-21T15:41:23;21.00;95.00
13320;DHT22;59599;47.608;12.190;2023-04-21T15:43:50;20.80;94.90
13320;DHT22;59599;47.608;12.190;2023-04-21T15:46:16;20.80;96.10
13320;DHT22;59599;47.608;12.190;2023-04-21T15:51:08;21.20;95.30
13320;DHT22;59599;47.608;12.190;2023-04-21T15:53:35;21.30;95.30
13320;DHT22;59599;47.608;12.190;2023-04-21T15:56:02;21.20;94.50
13320;DHT22;59599;47.608;12.190;2023-04-21T16:00:54;20.90;94.40
13320;DHT22;59599;47.608;12.190;2023-04-21T16:03:20;20.80;93.50
13320;DHT22;59599;47.608;12.190;2023-04-21T16:05:45;20.60;95.10
13320;DHT22;59599;47.608;12.190;2023-04-21T16:08:11;20.50;95.10
13320;DHT22;59599;47.608;12.190;2023-04-21T16:10:36;20.60;94.40
13320;DHT22;59599;47.608;12.190;2023-04-21T16:15:28;20.50;93.60
13320;DHT22;59599;47.608;12.190;2023-04-21T16:17:54;20.60;93.10
13320;DHT22;59599;47.608;12.190;2023-04-21T16:20:19;20.60;93.00
13320;DHT22;59599;47.608;12.190;2023-04-21T16:22:47;20.50;91.90
13320;DHT22;59599;47.608;12.190;2023-04-21T16:27:45;20.60;91.50
13320;DHT22;59599;47.608;12.190;2023-04-21T16:37:32;20.30;94.60
13320;DHT22;59599;47.608;12.190;2023-04-21T16:39:59;20.30;94.70
13320;DHT22;59599;47.608;12.190;2023-04-21T16:47:23;20.00;95.00
13320;DHT22;59599;47.608;12.190;2023-04-21T16:49:49;19.80;95.80
13320;DHT22;59599;47.608;12.190;2023-04-21T17:01:58;19.20;97.50
13320;DHT22;59599;47.608;12.190;2023-04-21T17:09:15;18.90;98.10
13320;DHT22;59599;47.608;12.190;2023-04-21T17:14:08;18.90;98.70
13320;DHT22;59599;47.608;12.190;2023-04-21T17:16:33;18.80;98.80
13320;DHT22;59599;47.608;12.190;2023-04-21T17:18:59;18.80;98.80
13320;DHT22;59599;47.608;12.190;2023-04-21T17:21:25;18.60;99.10
13320;DHT22;59599;47.608;12.190;2023-04-21T17:26:19;18.30;99.50
13320;DHT22;59599;47.608;12.190;2023-04-21T17:28:46;18.20;99.90
13320;DHT22;59599;47.608;12.190;2023-04-21T17:31:12;18.00;99.90
13320;DHT22;59599;47.608;12.190;2023-04-21T17:36:04;17.80;99.90
13320;DHT22;59599;47.608;12.190;2023-04-21T17:38:30;17.70;99.90
13320;DHT22;59599;47.608;12.190;2023-04-21T17:40:56;17.60;99.90
13320;DHT22;59599;47.608;12.190;2023-04-21T17:43:22;17.60;99.90
13320;DHT22;59599;47.608;12.190;2023-04-21T17:45:47;17.60;99.90
13320;DHT22;59599;47.608;12.190;2023-04-21T17:50:39;17.40;99.90
13320;DHT22;59599;47.608;12.190;2023-04-21T17:53:04;17.20;99.90
13320;DHT22;59599;47.608;12.190;2023-04-21T17:57:55;17.00;99.90
13320;DHT22;59599;47.608;12.190;2023-04-21T18:05:13;16.80;99.90
13320;DHT22;59599;47.608;12.190;2023-04-21T18:07:40;16.70;99.90
13320;DHT22;59599;47.608;12.190;2023-04-21T18:10:06;16.60;99.90
13320;DHT22;59599;47.608;12.190;2023-04-21T18:29:35;16.20;99.90
13320;DHT22;59599;47.608;12.190;2023-04-21T18:32:01;16.20;99.90
13320;DHT22;59599;47.608;12.190;2023-04-21T18:34:26;16.10;99.90
13320;DHT22;59599;47.608;12.190;2023-04-21T18:41:44;15.50;99.90
13320;DHT22;59599;47.608;12.190;2023-04-21T18:49:06;15.10;99.90
13320;DHT22;59599;47.608;12.190;2023-04-21T18:51:32;15.00;99.90
13320;DHT22;59599;47.608;12.190;2023-04-21T18:53:57;15.00;99.90
13320;DHT22;59599;47.608;12.190;2023-04-21T19:01:16;14.80;99.90
13320;DHT22;59599;47.608;12.190;2023-04-21T19:03:41;14.70;99.90
13320;DHT22;59599;47.608;12.190;2023-04-21T19:13:25;14.60;99.90
13320;DHT22;59599;47.608;12.190;2023-04-21T19:15:50;14.50;99.90
13320;DHT22;59599;47.608;12.190;2023-04-21T19:18:16;14.50;99.90
13320;DHT22;59599;47.608;12.190;2023-04-21T19:25:35;14.50;99.90
13320;DHT22;59599;47.608;12.190;2023-04-21T19:28:00;14.40;99.90
13320;DHT22;59599;47.608;12.190;2023-04-21T19:32:53;14.00;99.90
13320;DHT22;59599;47.608;12.190;2023-04-21T19:35:18;14.00;99.90
13320;DHT22;59599;47.608;12.190;2023-04-21T19:37:45;13.90;99.90
13320;DHT22;59599;47.608;12.190;2023-04-21T19:40:10;13.90;99.90
13320;DHT22;59599;47.608;12.190;2023-04-21T19:52:20;13.80;99.90
13320;DHT22;59599;47.608;12.190;2023-04-21T19:54:45;13.90;99.90
13320;DHT22;59599;47.608;12.190;2023-04-21T20:06:55;12.90;99.90
13320;DHT22;59599;47.608;12.190;2023-04-21T20:14:12;12.70;99.90
13320;DHT22;59599;47.608;12.190;2023-04-21T20:16:38;12.70;99.90
13320;DHT22;59599;47.608;12.190;2023-04-21T20:21:29;12.70;99.90
13320;DHT22;59599;47.608;12.190;2023-04-21T20:26:22;12.50;99.90
13320;DHT22;59599;47.608;12.190;2023-04-21T20:28:47;12.50;99.90
13320;DHT22;59599;47.608;12.190;2023-04-21T20:36:05;12.60;99.90
13320;DHT22;59599;47.608;12.190;2023-04-21T20:43:27;12.70;99.90
13320;DHT22;59599;47.608;12.190;2023-04-21T20:45:52;12.70;99.90
13320;DHT22;59599;47.608;12.190;2023-04-21T20:48:18;12.60;99.90
13320;DHT22;59599;47.608;12.190;2023-04-21T20:58:03;12.40;99.90
13320;DHT22;59599;47.608;12.190;2023-04-21T21:00:28;12.50;99.90
13320;DHT22;59599;47.608;12.190;2023-04-21T21:05:23;12.40;99.90
13320;DHT22;59599;47.608;12.190;2023-04-21T21:37:00;11.90;99.90
13320;DHT22;59599;47.608;12.190;2023-04-21T21:41:52;11.80;99.90
13320;DHT22;59599;47.608;12.190;2023-04-21T21:44:17;11.90;99.90
